Time;durP1;ratioP1;P1;durP2;ratioP2;P2;SDS_P1;SDS_P2;PMS_P1;PMS_P2;Temp;Humidity;BMP_temperature;BMP_pressure;BME280_temperature;BME280_humidity;BME280_pressure;Samples;Min_cycle;Max_cycle;Signal;HPM_P1;HPM_P2
2021/06/14 00:00:19;;;;;;;3.63;1.80;;;18.30;56.20;;;;;;2079153;28;20178;-84
2021/06/14 00:01:19;;;;;;;4.55;1.83;;;18.20;56.20;;;;;;2081628;28;20021;-84
2021/06/14 00:02:20;;;;;;;3.47;1.58;;;18.30;56.30;;;;;;2087056;28;20124;-84
2021/06/14 00:03:20;;;;;;;2.90;1.60;;;18.20;56.30;;;;;;2071149;28;20057;-84
2021/06/14 00:04:21;;;;;;;3.35;1.80;;;18.30;56.40;;;;;;2070905;28;20473;-84
2021/06/14 00:05:33;;;;;;;3.40;1.90;;;18.20;56.50;;;;;;2071599;28;20482;-84
2021/06/14 00:06:34;;;;;;;4.53;2.15;;;18.20;56.50;;;;;;2081487;28;20059;-84
2021/06/14 00:07:35;;;;;;;4.40;1.90;;;18.20;56.60;;;;;;2088474;28;20029;-85
2021/06/14 00:08:41;;;;;;;3.22;1.83;;;18.20;56.60;;;;;;2073079;28;20045;-84
2021/06/14 00:09:42;;;;;;;4.93;2.10;;;18.10;56.60;;;;;;2084900;28;20071;-84
2021/06/14 00:10:45;;;;;;;4.20;1.80;;;18.10;56.60;;;;;;2081707;28;20040;-84
2021/06/14 00:11:46;;;;;;;3.83;1.55;;;18.10;56.70;;;;;;2081176;28;20032;-84
2021/06/14 00:12:47;;;;;;;3.95;1.60;;;18.10;56.80;;;;;;2089764;28;20029;-84
2021/06/14 00:13:48;;;;;;;3.38;1.50;;;18.10;56.80;;;;;;2081412;28;20061;-84
2021/06/14 00:14:52;;;;;;;3.20;1.50;;;18.10;56.90;;;;;;2088911;28;20115;-84
2021/06/14 00:15:53;;;;;;;3.00;1.50;;;18.10;56.90;;;;;;2090267;28;20430;-84
2021/06/14 00:16:54;;;;;;;3.85;1.80;;;18.10;57.00;;;;;;2094749;28;20025;-84
2021/06/14 00:17:56;;;;;;;3.08;1.65;;;18.10;57.00;;;;;;2082498;28;20017;-83
2021/06/14 00:18:56;;;;;;;3.97;1.60;;;18.10;57.10;;;;;;2077020;28;20038;-83
2021/06/14 00:19:57;;;;;;;3.90;1.73;;;18.00;57.10;;;;;;2074269;28;20163;-83
2021/06/14 00:21:03;;;;;;;2.40;1.27;;;18.00;57.20;;;;;;2093085;28;20036;-84
2021/06/14 00:22:04;;;;;;;3.97;1.90;;;18.00;57.30;;;;;;2088795;28;20091;-83
2021/06/14 00:23:06;;;;;;;4.10;1.80;;;18.00;57.30;;;;;;2090981;28;20029;-83
2021/06/14 00:24:08;;;;;;;4.38;1.70;;;18.00;57.40;;;;;;2088140;28;20075;-83
2021/06/14 00:25:11;;;;;;;2.72;1.50;;;17.90;58.00;;;;;;2088939;28;20402;-84
2021/06/14 00:26:14;;;;;;;3.50;1.80;;;18.00;57.50;;;;;;2087810;28;20041;-83
2021/06/14 00:27:15;;;;;;;3.03;1.40;;;18.00;57.60;;;;;;2087208;28;20048;-83
2021/06/14 00:28:17;;;;;;;2.53;1.58;;;17.90;57.60;;;;;;2091012;28;20040;-84
2021/06/14 00:29:17;;;;;;;3.40;1.63;;;17.90;57.60;;;;;;2090176;28;20025;-83
2021/06/14 00:30:31;;;;;;;2.63;1.50;;;17.90;57.70;;;;;;2073262;28;20021;-83
2021/06/14 00:31:32;;;;;;;2.90;1.33;;;17.90;57.80;;;;;;2075304;28;20046;-84
2021/06/14 00:32:33;;;;;;;3.70;1.63;;;17.90;57.80;;;;;;2090891;28;20094;-83
2021/06/14 00:33:34;;;;;;;4.60;1.67;;;17.90;57.80;;;;;;2085828;28;20026;-83
2021/06/14 00:34:35;;;;;;;4.70;1.88;;;17.90;58.00;;;;;;2078279;28;20123;-83
2021/06/14 00:35:37;;;;;;;3.33;1.60;;;17.80;58.00;;;;;;2075881;28;20030;-84
2021/06/14 00:36:37;;;;;;;4.13;1.50;;;17.80;58.10;;;;;;2081827;28;20029;-83
2021/06/14 00:37:38;;;;;;;2.72;1.45;;;17.80;58.10;;;;;;2073134;28;20484;-85
2021/06/14 00:38:39;;;;;;;3.22;1.70;;;17.80;58.10;;;;;;2075453;28;20125;-85
2021/06/14 00:39:39;;;;;;;4.75;1.80;;;17.80;58.80;;;;;;2065098;28;20030;-85
2021/06/14 00:40:42;;;;;;;3.35;1.50;;;17.80;58.30;;;;;;2073827;28;20022;-85
2021/06/14 00:41:42;;;;;;;3.05;1.55;;;17.80;58.30;;;;;;2079310;28;20415;-85
2021/06/14 00:42:44;;;;;;;3.15;1.60;;;17.80;58.40;;;;;;2081894;28;20049;-84
2021/06/14 00:43:46;;;;;;;4.05;1.75;;;17.80;58.40;;;;;;2074899;28;20103;-85
2021/06/14 00:44:47;;;;;;;4.18;1.95;;;17.80;58.50;;;;;;2074148;28;20041;-85
2021/06/14 00:45:49;;;;;;;2.88;1.45;;;17.70;58.50;;;;;;2076473;28;20034;-84
2021/06/14 00:46:50;;;;;;;4.10;1.63;;;17.70;58.50;;;;;;2090497;28;20021;-85
2021/06/14 00:47:51;;;;;;;2.63;1.77;;;17.80;59.20;;;;;;2079974;28;20037;-85
2021/06/14 00:48:52;;;;;;;2.95;1.58;;;17.70;58.50;;;;;;2081626;28;20037;-84
2021/06/14 00:49:52;;;;;;;3.30;1.70;;;17.70;58.60;;;;;;2080796;28;20056;-84
2021/06/14 00:50:59;;;;;;;3.17;1.65;;;17.70;58.60;;;;;;2073023;28;20115;-85
2021/06/14 00:51:59;;;;;;;3.15;1.50;;;17.70;58.70;;;;;;2080839;28;20026;-84
2021/06/14 00:53:01;;;;;;;3.50;1.50;;;17.70;58.70;;;;;;2072631;28;20034;-85
2021/06/14 00:54:01;;;;;;;3.95;1.70;;;17.70;58.70;;;;;;2068535;28;20026;-85
2021/06/14 00:55:04;;;;;;;4.25;1.88;;;17.70;58.80;;;;;;2060771;28;20089;-85
2021/06/14 00:56:14;;;;;;;3.17;1.50;;;17.70;58.80;;;;;;2065697;28;20080;-84
2021/06/14 00:57:15;;;;;;;4.00;1.60;;;17.70;58.80;;;;;;2064698;28;20069;-85
2021/06/14 00:58:16;;;;;;;3.20;1.45;;;17.70;58.80;;;;;;2075107;28;20033;-85
2021/06/14 00:59:17;;;;;;;3.03;1.60;;;17.70;58.90;;;;;;2088772;28;20024;-84
2021/06/14 01:00:20;;;;;;;3.05;1.50;;;17.70;58.90;;;;;;2072186;28;20040;-84
2021/06/14 01:01:21;;;;;;;3.70;1.67;;;17.70;59.00;;;;;;2060749;28;21201;-84
2021/06/14 01:02:21;;;;;;;4.70;1.73;;;17.70;59.00;;;;;;2073958;28;20026;-85
2021/06/14 01:03:23;;;;;;;3.78;1.73;;;17.70;59.00;;;;;;2080808;28;20128;-84
2021/06/14 01:04:24;;;;;;;3.58;1.88;;;17.70;59.00;;;;;;2080166;28;20053;-84
2021/06/14 01:05:27;;;;;;;2.97;1.40;;;17.70;59.10;;;;;;2071808;28;20029;-83
2021/06/14 01:06:28;;;;;;;2.90;1.50;;;17.70;59.10;;;;;;2088005;28;20546;-84
2021/06/14 01:07:29;;;;;;;3.47;1.75;;;17.70;59.10;;;;;;2081646;28;20036;-84
2021/06/14 01:08:32;;;;;;;4.03;1.70;;;17.70;59.20;;;;;;2080574;28;20022;-84
2021/06/14 01:09:33;;;;;;;4.28;1.83;;;17.70;59.20;;;;;;2089465;28;20037;-84
2021/06/14 01:10:35;;;;;;;3.70;1.60;;;17.60;59.80;;;;;;2087720;28;20032;-84
2021/06/14 01:11:51;;;;;;;3.70;1.83;;;17.60;59.20;;;;;;2091069;28;21790;-84
2021/06/14 01:13:10;;;;;;;2.35;1.45;;;17.60;59.30;;;;;;2081596;28;20030;-84
2021/06/14 01:14:22;;;;;;;3.83;1.75;;;17.60;59.30;;;;;;2090625;28;20029;-85
2021/06/14 01:15:27;;;;;;;3.22;1.63;;;17.50;59.20;;;;;;2088590;28;20502;-84
2021/06/14 01:16:40;;;;;;;3.22;1.60;;;17.60;59.30;;;;;;2088669;28;20036;-84
2021/06/14 01:17:58;;;;;;;3.08;1.60;;;17.50;59.30;;;;;;2088049;28;20095;-84
2021/06/14 01:19:01;;;;;;;2.95;1.60;;;17.50;59.30;;;;;;2088065;28;20037;-84
2021/06/14 01:20:29;;;;;;;5.03;1.70;;;17.50;59.40;;;;;;2097288;28;20025;-84
2021/06/14 01:21:37;;;;;;;3.63;1.50;;;17.50;59.50;;;;;;2089823;28;20554;-84
2021/06/14 01:22:52;;;;;;;3.88;1.70;;;17.50;59.50;;;;;;2089118;28;20128;-84
2021/06/14 01:24:14;;;;;;;3.38;1.63;;;17.50;59.50;;;;;;2095186;28;20095;-84
2021/06/14 01:25:41;;;;;;;4.18;1.67;;;17.50;59.60;;;;;;2088855;28;20040;-84
2021/06/14 01:27:02;;;;;;;2.83;1.50;;;17.50;59.60;;;;;;2092710;28;20024;-84
2021/06/14 01:28:04;;;;;;;3.20;1.73;;;17.40;59.50;;;;;;2094021;28;20025;-84
2021/06/14 01:29:08;;;;;;;3.67;1.55;;;17.40;59.50;;;;;;2088977;28;20029;-84
2021/06/14 01:30:16;;;;;;;3.22;1.77;;;17.40;59.60;;;;;;2081072;28;20021;-84
2021/06/14 01:31:18;;;;;;;4.45;1.95;;;17.40;59.80;;;;;;2088004;28;20033;-85
2021/06/14 01:32:19;;;;;;;3.30;1.80;;;17.40;59.80;;;;;;2080631;28;20029;-84
2021/06/14 01:33:24;;;;;;;3.85;1.88;;;17.40;59.90;;;;;;2079740;28;20472;-83
2021/06/14 01:34:28;;;;;;;3.20;1.75;;;17.40;59.90;;;;;;2081535;28;20510;-84
2021/06/14 01:35:36;;;;;;;3.35;1.70;;;17.30;59.90;;;;;;2092610;28;20120;-84
2021/06/14 01:36:39;;;;;;;3.15;1.73;;;17.30;60.00;;;;;;2087473;28;20351;-84
2021/06/14 01:37:47;;;;;;;3.53;1.60;;;17.30;60.10;;;;;;2089419;28;20056;-84
2021/06/14 01:38:49;;;;;;;3.75;1.90;;;17.30;60.10;;;;;;2090255;28;20087;-84
2021/06/14 01:39:51;;;;;;;5.25;2.00;;;17.30;60.80;;;;;;2088321;28;20438;-83
2021/06/14 01:40:56;;;;;;;4.22;1.70;;;17.30;60.20;;;;;;2081201;28;20026;-84
2021/06/14 01:41:58;;;;;;;3.92;1.70;;;17.30;60.30;;;;;;2081644;28;20033;-84
2021/06/14 01:43:01;;;;;;;3.58;1.70;;;17.30;60.40;;;;;;2088432;28;20033;-84
2021/06/14 01:44:03;;;;;;;3.78;1.80;;;17.30;60.40;;;;;;2081633;28;20049;-84
2021/06/14 01:45:05;;;;;;;3.45;1.70;;;17.30;60.40;;;;;;2089475;28;20033;-84
2021/06/14 01:46:20;;;;;;;5.35;2.00;;;17.30;60.50;;;;;;2092563;28;20048;-84
2021/06/14 01:47:21;;;;;;;4.40;1.75;;;17.30;60.50;;;;;;2088769;28;20384;-84
2021/06/14 01:48:23;;;;;;;4.25;2.10;;;17.30;60.50;;;;;;2088532;28;20059;-83
2021/06/14 01:49:25;;;;;;;4.25;2.00;;;17.30;60.60;;;;;;2089630;28;20111;-84
2021/06/14 01:50:30;;;;;;;3.60;2.00;;;17.30;60.60;;;;;;2081336;28;20083;-84
2021/06/14 01:51:33;;;;;;;3.58;1.83;;;17.20;60.60;;;;;;2081766;28;20033;-83
2021/06/14 01:52:34;;;;;;;3.85;1.90;;;17.20;60.80;;;;;;2081051;28;20415;-83
2021/06/14 01:53:36;;;;;;;4.38;2.03;;;17.20;60.80;;;;;;2090225;28;20037;-83
2021/06/14 01:54:37;;;;;;;4.88;2.10;;;17.20;60.80;;;;;;2098376;28;20379;-83
2021/06/14 01:55:38;;;;;;;3.10;1.80;;;17.20;60.80;;;;;;2090486;28;20040;-83
2021/06/14 01:56:47;;;;;;;4.28;2.00;;;17.20;60.90;;;;;;2072534;28;20460;-83
2021/06/14 01:57:49;;;;;;;3.45;1.90;;;17.20;60.90;;;;;;2083056;28;20301;-84
2021/06/14 01:58:50;;;;;;;3.13;1.75;;;17.20;60.90;;;;;;2088926;28;20549;-84
2021/06/14 01:59:52;;;;;;;3.90;1.88;;;17.20;61.00;;;;;;2080482;28;20029;-84
2021/06/14 02:00:54;;;;;;;3.33;1.67;;;17.20;61.00;;;;;;2081014;28;20079;-85
2021/06/14 02:01:56;;;;;;;4.20;2.00;;;17.20;61.10;;;;;;2089762;28;20037;-84
2021/06/14 02:02:58;;;;;;;3.72;1.95;;;17.10;61.10;;;;;;2081758;28;20033;-85
2021/06/14 02:04:00;;;;;;;4.43;1.88;;;17.20;61.20;;;;;;2081497;28;20037;-84
2021/06/14 02:05:01;;;;;;;4.07;2.00;;;17.10;61.20;;;;;;2081078;28;20026;-85
2021/06/14 02:06:03;;;;;;;3.75;1.70;;;17.20;61.20;;;;;;2082043;28;20036;-85
2021/06/14 02:07:05;;;;;;;3.67;2.00;;;17.10;61.20;;;;;;2087672;28;20071;-85
2021/06/14 02:08:10;;;;;;;3.67;1.80;;;17.10;61.20;;;;;;2078033;28;20553;-84
2021/06/14 02:09:14;;;;;;;5.38;2.15;;;17.20;61.30;;;;;;2080565;28;20029;-84
2021/06/14 02:10:14;;;;;;;3.53;1.90;;;17.10;61.30;;;;;;2083407;28;20030;-85
2021/06/14 02:11:16;;;;;;;3.47;1.67;;;17.10;61.30;;;;;;2081119;28;20018;-85
2021/06/14 02:12:17;;;;;;;3.63;2.00;;;17.10;61.40;;;;;;2080950;28;20034;-84
2021/06/14 02:13:20;;;;;;;3.50;1.90;;;17.10;61.50;;;;;;2072786;28;20025;-85
2021/06/14 02:14:26;;;;;;;3.55;1.80;;;17.10;61.50;;;;;;2081635;28;20049;-84
2021/06/14 02:15:27;;;;;;;3.45;1.90;;;17.10;61.50;;;;;;2089078;28;20513;-84
2021/06/14 02:16:30;;;;;;;3.75;1.75;;;17.10;61.50;;;;;;2080575;28;20454;-85
2021/06/14 02:17:31;;;;;;;3.65;1.65;;;17.10;61.60;;;;;;2081666;28;20144;-84
2021/06/14 02:18:32;;;;;;;4.93;2.00;;;17.10;61.70;;;;;;2080949;28;20048;-85
2021/06/14 02:19:36;;;;;;;3.85;2.00;;;17.00;61.70;;;;;;2081165;28;20029;-85
2021/06/14 02:20:39;;;;;;;3.33;1.70;;;17.00;61.80;;;;;;2091218;28;20111;-84
2021/06/14 02:21:41;;;;;;;3.45;1.67;;;17.00;61.90;;;;;;2080662;28;20033;-85
2021/06/14 02:22:42;;;;;;;3.30;1.65;;;17.00;61.90;;;;;;2082434;28;20515;-84
2021/06/14 02:23:43;;;;;;;4.57;2.20;;;17.00;61.90;;;;;;2081861;28;20033;-84
2021/06/14 02:24:44;;;;;;;5.10;2.30;;;17.00;62.00;;;;;;2080504;28;20540;-84
2021/06/14 02:25:44;;;;;;;4.43;1.98;;;17.00;62.00;;;;;;2079219;28;20034;-84
2021/06/14 02:26:46;;;;;;;5.13;2.22;;;16.90;62.00;;;;;;2079863;28;20025;-84
2021/06/14 02:27:47;;;;;;;3.80;1.90;;;16.90;62.10;;;;;;2080643;28;20041;-85
2021/06/14 02:28:47;;;;;;;3.67;1.92;;;16.90;62.10;;;;;;2081254;28;20089;-84
2021/06/14 02:29:48;;;;;;;3.35;1.90;;;16.90;62.20;;;;;;2088988;28;20061;-84
2021/06/14 02:30:49;;;;;;;3.72;1.90;;;16.90;62.20;;;;;;2079286;28;20029;-85
2021/06/14 02:31:50;;;;;;;3.47;1.90;;;16.90;62.20;;;;;;2071277;28;20050;-84
2021/06/14 02:32:52;;;;;;;3.92;2.17;;;16.90;62.30;;;;;;2079980;28;20029;-84
2021/06/14 02:33:53;;;;;;;4.57;2.20;;;16.90;62.30;;;;;;2087794;28;20033;-84
2021/06/14 02:34:54;;;;;;;3.75;1.95;;;16.90;62.30;;;;;;2089282;28;20029;-84
2021/06/14 02:35:55;;;;;;;4.47;2.10;;;16.90;62.40;;;;;;2073542;28;20076;-84
2021/06/14 02:36:56;;;;;;;5.82;2.00;;;16.90;62.50;;;;;;2080394;28;20026;-84
2021/06/14 02:38:06;;;;;;;4.85;2.15;;;16.90;62.40;;;;;;2086179;28;20032;-84
2021/06/14 02:39:17;;;;;;;4.00;2.10;;;16.90;62.50;;;;;;2089781;28;20045;-84
2021/06/14 02:40:21;;;;;;;4.72;2.13;;;16.90;62.60;;;;;;2094314;28;20540;-84
2021/06/14 02:41:22;;;;;;;3.63;2.10;;;16.80;62.50;;;;;;2095425;28;20024;-84
2021/06/14 02:42:23;;;;;;;4.68;2.00;;;16.80;62.60;;;;;;2089510;28;20025;-84
2021/06/14 02:43:24;;;;;;;3.80;2.00;;;16.80;62.60;;;;;;2087359;28;20025;-85
2021/06/14 02:44:27;;;;;;;4.20;1.77;;;16.80;62.60;;;;;;2080184;28;20091;-84
2021/06/14 02:45:30;;;;;;;4.28;2.10;;;16.80;62.70;;;;;;2073428;28;20037;-84
2021/06/14 02:46:51;;;;;;;4.00;2.35;;;16.80;62.80;;;;;;2080927;28;20498;-84
2021/06/14 02:47:52;;;;;;;3.20;2.00;;;16.80;62.80;;;;;;2088735;28;20033;-83
2021/06/14 02:48:53;;;;;;;4.30;2.20;;;16.80;62.80;;;;;;2088867;28;20029;-84
2021/06/14 02:49:57;;;;;;;4.35;2.13;;;16.80;62.90;;;;;;2062706;28;20132;-84
2021/06/14 02:51:00;;;;;;;3.40;2.08;;;16.70;62.90;;;;;;2074353;28;20121;-84
2021/06/14 02:52:05;;;;;;;5.07;2.20;;;16.80;63.00;;;;;;2089402;28;20029;-84
2021/06/14 02:53:09;;;;;;;4.00;2.08;;;16.70;63.00;;;;;;2078385;28;20056;-84
2021/06/14 02:54:16;;;;;;;4.72;2.45;;;16.70;63.10;;;;;;2084711;28;20469;-84
2021/06/14 02:55:21;;;;;;;5.25;2.10;;;16.70;63.10;;;;;;2091935;28;20016;-84
2021/06/14 02:56:22;;;;;;;4.22;2.25;;;16.70;63.20;;;;;;2093980;28;20388;-85
2021/06/14 02:57:28;;;;;;;5.05;2.20;;;16.70;63.20;;;;;;2074557;28;20111;-84
2021/06/14 02:58:39;;;;;;;3.47;1.83;;;16.70;63.30;;;;;;2075707;28;20057;-85
2021/06/14 02:59:41;;;;;;;4.07;2.30;;;16.70;63.40;;;;;;2080811;28;20034;-85
2021/06/14 03:00:42;;;;;;;5.07;2.22;;;16.60;63.40;;;;;;2085762;28;20059;-84
2021/06/14 03:01:47;;;;;;;4.43;2.30;;;16.60;63.50;;;;;;2087280;28;20040;-85
2021/06/14 03:02:48;;;;;;;4.57;2.45;;;16.60;63.60;;;;;;2081451;28;20030;-84
2021/06/14 03:03:52;;;;;;;5.30;2.30;;;16.60;63.60;;;;;;2082643;28;20039;-84
2021/06/14 03:04:54;;;;;;;5.10;2.33;;;16.60;63.70;;;;;;2080388;28;20490;-84
2021/06/14 03:05:56;;;;;;;4.85;2.55;;;16.50;63.70;;;;;;2072901;28;20103;-85
2021/06/14 03:06:57;;;;;;;3.97;2.22;;;16.50;63.80;;;;;;2073824;28;20034;-84
2021/06/14 03:07:59;;;;;;;3.78;2.17;;;16.60;63.90;;;;;;2063846;28;20483;-85
2021/06/14 03:09:04;;;;;;;4.82;2.38;;;16.50;63.90;;;;;;2077716;28;20414;-84
2021/06/14 03:10:08;;;;;;;4.72;2.30;;;16.50;63.90;;;;;;2095820;28;20048;-84
2021/06/14 03:11:09;;;;;;;4.55;2.40;;;16.50;64.00;;;;;;2084244;28;20056;-84
2021/06/14 03:12:10;;;;;;;4.88;2.45;;;16.50;64.00;;;;;;2079009;28;20029;-85
2021/06/14 03:13:12;;;;;;;4.28;2.40;;;16.50;64.00;;;;;;2075946;28;20147;-84
2021/06/14 03:14:15;;;;;;;3.80;2.35;;;16.50;64.10;;;;;;2083726;28;20069;-84
2021/06/14 03:15:15;;;;;;;6.57;2.83;;;16.50;64.20;;;;;;2096757;28;20082;-85
2021/06/14 03:16:23;;;;;;;4.18;2.40;;;16.50;64.20;;;;;;2082117;28;20025;-85
2021/06/14 03:17:24;;;;;;;5.35;2.25;;;16.50;64.20;;;;;;2078987;28;20036;-84
2021/06/14 03:18:26;;;;;;;3.80;2.30;;;16.50;64.30;;;;;;2088325;28;20022;-84
2021/06/14 03:19:28;;;;;;;3.97;2.22;;;16.50;64.30;;;;;;2100936;28;20032;-84
2021/06/14 03:20:31;;;;;;;4.28;2.33;;;16.50;64.30;;;;;;2098529;28;20054;-84
2021/06/14 03:21:33;;;;;;;4.35;2.47;;;16.50;64.30;;;;;;2107764;28;20050;-84
2021/06/14 03:22:34;;;;;;;4.93;2.75;;;16.50;64.40;;;;;;2096878;28;20021;-84
2021/06/14 03:23:35;;;;;;;4.32;2.40;;;16.50;64.40;;;;;;2089627;28;20045;-84
2021/06/14 03:24:38;;;;;;;5.43;2.60;;;16.50;64.40;;;;;;2076204;28;20027;-84
2021/06/14 03:25:38;;;;;;;5.20;2.70;;;16.50;64.50;;;;;;2090278;28;20212;-85
2021/06/14 03:26:43;;;;;;;5.55;2.80;;;16.50;64.50;;;;;;2092568;28;20021;-85
2021/06/14 03:27:44;;;;;;;5.25;2.70;;;16.50;64.60;;;;;;2080861;28;20033;-84
2021/06/14 03:28:46;;;;;;;5.32;2.47;;;16.50;64.60;;;;;;2080478;28;20022;-84
2021/06/14 03:29:49;;;;;;;4.50;2.38;;;16.50;64.70;;;;;;2082281;28;20027;-84
2021/06/14 03:30:50;;;;;;;5.50;2.63;;;16.50;64.80;;;;;;2072139;28;20044;-84
2021/06/14 03:31:52;;;;;;;4.97;2.30;;;16.50;64.80;;;;;;2064461;28;20385;-84
2021/06/14 03:32:54;;;;;;;5.43;2.72;;;16.50;64.80;;;;;;2071843;28;20030;-83
2021/06/14 03:33:56;;;;;;;5.47;2.75;;;16.50;64.90;;;;;;2072131;28;20041;-84
2021/06/14 03:34:57;;;;;;;4.82;2.60;;;16.40;64.90;;;;;;2071890;28;20121;-83
2021/06/14 03:35:57;;;;;;;5.22;2.60;;;16.40;65.00;;;;;;2072489;28;20513;-84
2021/06/14 03:36:59;;;;;;;5.18;2.47;;;16.40;65.00;;;;;;2065312;28;20079;-83
2021/06/14 03:38:01;;;;;;;5.55;2.80;;;16.40;65.00;;;;;;2073952;28;20040;-84
2021/06/14 03:39:02;;;;;;;5.93;2.60;;;16.40;65.00;;;;;;2088788;28;20033;-84
2021/06/14 03:40:04;;;;;;;5.50;2.80;;;16.40;65.10;;;;;;2079679;28;20037;-84
2021/06/14 03:41:05;;;;;;;4.82;2.70;;;16.40;65.10;;;;;;2064934;28;20173;-83
2021/06/14 03:42:06;;;;;;;5.15;2.72;;;16.40;65.10;;;;;;2088033;28;20099;-83
2021/06/14 03:43:07;;;;;;;5.45;2.72;;;16.40;65.20;;;;;;2086593;28;20034;-84
2021/06/14 03:44:08;;;;;;;4.40;2.70;;;16.40;65.20;;;;;;2064581;28;20117;-84
2021/06/14 03:45:10;;;;;;;5.40;2.85;;;16.40;65.30;;;;;;2071949;28;20392;-84
2021/06/14 03:46:11;;;;;;;5.35;2.58;;;16.40;65.30;;;;;;2088811;28;20029;-84
2021/06/14 03:47:12;;;;;;;4.95;2.72;;;16.40;65.30;;;;;;2086074;28;20029;-85
2021/06/14 03:48:12;;;;;;;6.18;2.72;;;16.40;65.40;;;;;;2082343;28;20071;-84
2021/06/14 03:49:13;;;;;;;5.20;2.63;;;16.40;65.40;;;;;;2072251;28;20500;-85
2021/06/14 03:50:14;;;;;;;5.22;2.80;;;16.40;66.00;;;;;;2075794;28;20026;-84
2021/06/14 03:51:14;;;;;;;4.22;2.60;;;16.40;65.40;;;;;;2081067;28;20025;-84
2021/06/14 03:52:15;;;;;;;5.38;2.70;;;16.40;65.40;;;;;;2082895;28;20017;-84
2021/06/14 03:53:16;;;;;;;5.28;2.88;;;16.40;65.50;;;;;;2069023;28;20092;-84
2021/06/14 03:54:17;;;;;;;5.93;2.88;;;16.40;65.50;;;;;;2072416;28;20117;-84
2021/06/14 03:55:18;;;;;;;5.13;2.80;;;16.50;65.60;;;;;;2057610;28;20520;-84
2021/06/14 03:56:19;;;;;;;4.47;2.55;;;16.40;65.50;;;;;;2064793;28;20027;-83
2021/06/14 03:57:19;;;;;;;3.70;2.30;;;16.40;65.60;;;;;;2066507;28;20038;-83
2021/06/14 03:58:20;;;;;;;4.20;2.50;;;16.40;65.60;;;;;;2071774;28;20030;-83
2021/06/14 03:59:21;;;;;;;4.88;2.75;;;16.50;65.80;;;;;;2079958;28;20136;-84
2021/06/14 04:00:21;;;;;;;6.13;2.67;;;16.50;65.80;;;;;;2088188;28;20496;-83
2021/06/14 04:01:23;;;;;;;6.68;2.65;;;16.50;65.80;;;;;;2080447;28;20510;-83
2021/06/14 04:02:23;;;;;;;4.63;2.80;;;16.50;65.80;;;;;;2063689;28;20041;-83
2021/06/14 04:03:27;;;;;;;5.15;2.80;;;16.50;65.80;;;;;;2064139;28;20412;-84
2021/06/14 04:04:40;;;;;;;5.57;2.83;;;16.50;65.80;;;;;;2073815;28;20126;-83
2021/06/14 04:05:41;;;;;;;5.10;2.72;;;16.50;65.80;;;;;;2079055;28;20029;-84
2021/06/14 04:06:41;;;;;;;5.00;2.95;;;16.50;65.80;;;;;;2084995;28;20392;-83
2021/06/14 04:07:42;;;;;;;5.13;2.90;;;16.50;65.80;;;;;;2072175;28;20480;-84
2021/06/14 04:08:43;;;;;;;6.10;3.08;;;16.50;65.80;;;;;;2071585;28;20037;-84
2021/06/14 04:09:43;;;;;;;5.25;2.85;;;16.50;65.80;;;;;;2062523;28;20468;-84
2021/06/14 04:10:44;;;;;;;4.53;2.55;;;16.60;65.80;;;;;;2054445;28;20125;-83
2021/06/14 04:11:44;;;;;;;4.32;2.47;;;16.60;65.70;;;;;;2072877;28;20026;-84
2021/06/14 04:12:45;;;;;;;4.28;2.47;;;16.60;65.70;;;;;;2072557;28;20515;-83
2021/06/14 04:13:49;;;;;;;5.30;2.72;;;16.60;65.70;;;;;;2078696;28;20483;-83
2021/06/14 04:14:49;;;;;;;4.82;2.50;;;16.70;65.70;;;;;;2086818;28;20031;-83
2021/06/14 04:15:50;;;;;;;4.93;2.58;;;16.80;65.70;;;;;;2072083;28;20034;-83
2021/06/14 04:16:51;;;;;;;5.25;2.60;;;16.80;65.70;;;;;;2063091;28;20148;-85
2021/06/14 04:17:51;;;;;;;4.93;2.58;;;16.80;65.70;;;;;;2079399;28;20574;-84
2021/06/14 04:18:52;;;;;;;5.72;2.72;;;16.80;65.70;;;;;;2088594;28;20395;-84
2021/06/14 04:19:52;;;;;;;4.55;2.72;;;16.80;65.60;;;;;;2078722;28;20030;-83
2021/06/14 04:20:53;;;;;;;4.97;2.40;;;16.80;65.50;;;;;;2079619;28;20037;-83
2021/06/14 04:21:54;;;;;;;4.28;2.55;;;16.90;65.40;;;;;;2080172;28;20026;-84
2021/06/14 04:22:54;;;;;;;4.68;2.60;;;17.00;65.40;;;;;;2071449;28;20040;-83
2021/06/14 04:23:55;;;;;;;3.95;2.60;;;17.00;65.30;;;;;;2065883;28;20022;-84
2021/06/14 04:24:56;;;;;;;4.82;2.70;;;17.10;65.20;;;;;;2071232;28;20026;-84
2021/06/14 04:25:56;;;;;;;5.43;2.92;;;17.10;65.20;;;;;;2063785;28;20030;-84
2021/06/14 04:26:57;;;;;;;4.28;2.45;;;17.10;65.10;;;;;;2064143;28;20038;-83
2021/06/14 04:27:58;;;;;;;5.68;2.97;;;17.10;65.10;;;;;;2078341;28;20044;-83
2021/06/14 04:28:58;;;;;;;4.80;2.65;;;17.10;65.10;;;;;;2087960;28;20028;-83
2021/06/14 04:29:59;;;;;;;5.10;2.50;;;17.10;65.10;;;;;;2083764;28;20568;-84
2021/06/14 04:31:00;;;;;;;5.47;2.90;;;17.10;65.10;;;;;;2074431;28;20039;-83
2021/06/14 04:32:00;;;;;;;6.00;2.70;;;17.10;65.10;;;;;;2073172;28;20058;-82
2021/06/14 04:33:02;;;;;;;5.38;2.83;;;17.20;65.00;;;;;;2093251;28;20024;-83
2021/06/14 04:34:02;;;;;;;5.28;3.10;;;17.20;65.00;;;;;;2077433;28;20053;-83
2021/06/14 04:35:05;;;;;;;5.10;2.70;;;17.20;65.10;;;;;;2069695;28;20040;-84
2021/06/14 04:36:06;;;;;;;4.78;2.78;;;17.20;65.10;;;;;;2085200;28;20059;-84
2021/06/14 04:37:07;;;;;;;5.28;2.97;;;17.20;65.20;;;;;;2094728;28;20159;-84
2021/06/14 04:38:07;;;;;;;4.95;2.70;;;17.20;65.20;;;;;;2088600;28;20064;-83
2021/06/14 04:39:09;;;;;;;4.47;2.50;;;17.20;65.20;;;;;;2073597;28;20041;-83
2021/06/14 04:40:10;;;;;;;4.35;2.58;;;17.10;65.20;;;;;;2079196;28;20377;-84
2021/06/14 04:41:10;;;;;;;5.00;2.67;;;17.10;65.10;;;;;;2083707;28;20032;-84
2021/06/14 04:42:11;;;;;;;5.45;3.00;;;17.20;65.20;;;;;;2076046;28;20547;-83
2021/06/14 04:43:11;;;;;;;5.15;2.72;;;17.20;65.20;;;;;;2060665;28;20505;-83
2021/06/14 04:44:12;;;;;;;5.45;2.80;;;17.20;65.20;;;;;;2064060;28;20468;-84
2021/06/14 04:45:13;;;;;;;4.60;2.70;;;17.20;65.20;;;;;;2065771;28;20049;-83
2021/06/14 04:46:14;;;;;;;6.70;2.72;;;17.20;65.20;;;;;;2071936;28;20030;-83
2021/06/14 04:47:14;;;;;;;5.13;2.58;;;17.20;65.20;;;;;;2092072;28;20028;-83
2021/06/14 04:48:15;;;;;;;5.30;2.90;;;17.30;65.20;;;;;;2093784;28;20032;-83
2021/06/14 04:49:16;;;;;;;5.50;2.55;;;17.30;65.00;;;;;;2087945;28;20020;-82
2021/06/14 04:50:17;;;;;;;5.07;2.70;;;17.30;65.50;;;;;;2082196;28;20480;-82
2021/06/14 04:51:18;;;;;;;4.63;2.78;;;17.40;64.80;;;;;;2082323;28;20399;-83
2021/06/14 04:52:18;;;;;;;4.30;2.65;;;17.50;65.30;;;;;;2085507;28;20036;-82
2021/06/14 04:53:19;;;;;;;4.70;2.63;;;17.50;64.30;;;;;;2089191;28;20025;-83
2021/06/14 04:54:20;;;;;;;5.10;2.70;;;17.60;64.00;;;;;;2087452;28;20532;-82
2021/06/14 04:55:20;;;;;;;4.78;2.67;;;17.70;63.80;;;;;;2082477;28;20024;-83
2021/06/14 04:56:21;;;;;;;5.38;2.72;;;17.70;63.60;;;;;;2077692;28;20065;-83
2021/06/14 04:57:22;;;;;;;5.15;2.95;;;17.80;63.40;;;;;;2077752;28;20026;-83
2021/06/14 04:58:23;;;;;;;5.20;2.78;;;17.90;63.20;;;;;;2076057;28;20104;-83
2021/06/14 04:59:24;;;;;;;5.13;2.65;;;18.00;63.00;;;;;;2085637;28;20026;-84
2021/06/14 05:00:25;;;;;;;4.75;2.50;;;18.10;62.80;;;;;;2090490;28;20064;-83
2021/06/14 05:01:25;;;;;;;5.18;2.47;;;18.20;62.70;;;;;;2085245;28;20026;-83
2021/06/14 05:02:26;;;;;;;6.03;2.88;;;18.30;62.50;;;;;;2085641;28;20017;-84
2021/06/14 05:03:27;;;;;;;6.13;2.88;;;18.40;62.30;;;;;;2091999;28;20410;-83
2021/06/14 05:04:27;;;;;;;7.13;3.00;;;18.50;62.20;;;;;;2087777;28;20482;-83
2021/06/14 05:05:28;;;;;;;5.32;2.47;;;18.50;61.90;;;;;;2090458;28;20437;-83
2021/06/14 05:06:30;;;;;;;4.60;2.45;;;18.70;61.80;;;;;;2065108;28;20038;-83
2021/06/14 05:07:31;;;;;;;5.63;3.00;;;18.80;61.60;;;;;;2082355;28;20401;-83
2021/06/14 05:08:32;;;;;;;6.28;2.78;;;18.80;61.30;;;;;;2095031;28;20090;-83
2021/06/14 05:09:32;;;;;;;5.70;2.60;;;18.90;61.00;;;;;;2090044;28;20033;-83
2021/06/14 05:10:33;;;;;;;5.85;2.65;;;19.10;60.90;;;;;;2096298;28;20498;-83
2021/06/14 05:11:34;;;;;;;5.50;2.50;;;19.10;60.80;;;;;;2089904;28;20024;-83
2021/06/14 05:12:35;;;;;;;5.22;2.70;;;19.20;60.70;;;;;;2094180;28;20417;-83
2021/06/14 05:13:35;;;;;;;4.03;2.40;;;19.30;60.50;;;;;;2094006;28;20419;-83
2021/06/14 05:14:36;;;;;;;4.57;2.75;;;19.40;60.30;;;;;;2081976;28;20065;-83
2021/06/14 05:15:37;;;;;;;5.38;2.33;;;19.50;60.10;;;;;;2077766;28;20396;-83
2021/06/14 05:16:37;;;;;;;4.38;2.50;;;19.50;59.80;;;;;;2075583;28;20333;-83
2021/06/14 05:17:38;;;;;;;6.68;2.67;;;19.60;59.70;;;;;;2094498;28;20029;-83
2021/06/14 05:18:39;;;;;;;5.47;2.60;;;19.70;59.50;;;;;;2098522;28;20040;-83
2021/06/14 05:19:39;;;;;;;5.65;2.60;;;19.80;59.30;;;;;;2082004;28;20029;-84
2021/06/14 05:20:41;;;;;;;5.07;2.30;;;19.80;59.00;;;;;;2068858;28;20041;-83
2021/06/14 05:21:41;;;;;;;4.70;2.60;;;19.90;58.80;;;;;;2086933;28;20156;-83
2021/06/14 05:22:42;;;;;;;4.68;2.50;;;20.00;58.60;;;;;;2086140;28;20119;-83
2021/06/14 05:23:43;;;;;;;4.82;2.40;;;20.00;58.40;;;;;;2073498;28;20057;-83
2021/06/14 05:24:43;;;;;;;5.00;2.42;;;20.10;58.30;;;;;;2089483;28;20013;-83
2021/06/14 05:25:44;;;;;;;4.10;2.10;;;20.10;58.10;;;;;;2093940;28;20033;-83